sensor_id;sensor_type;location;lat;lon;timestamp;P1;durP1;ratioP1;P2;durP2;ratioP2
20743;SDS011;56303;52.160;-0.428;2023-06-04T00:02:20;15.00;;;5.47;;
20743;SDS011;56303;52.160;-0.428;2023-06-04T00:04:48;12.63;;;5.27;;
20743;SDS011;56303;52.160;-0.428;2023-06-04T00:07:15;14.00;;;5.67;;
20743;SDS011;56303;52.160;-0.428;2023-06-04T00:09:42;14.40;;;5.43;;
20743;SDS011;56303;52.160;-0.428;2023-06-04T00:12:09;12.03;;;5.30;;
20743;SDS011;56303;52.160;-0.428;2023-06-04T00:14:36;12.07;;;5.40;;
20743;SDS011;56303;52.160;-0.428;2023-06-04T00:17:03;15.40;;;6.20;;
20743;SDS011;56303;52.160;-0.428;2023-06-04T00:19:31;15.67;;;7.00;;
20743;SDS011;56303;52.160;-0.428;2023-06-04T00:22:00;13.13;;;6.17;;
20743;SDS011;56303;52.160;-0.428;2023-06-04T00:24:27;15.33;;;5.50;;
20743;SDS011;56303;52.160;-0.428;2023-06-04T00:26:54;12.97;;;5.57;;
20743;SDS011;56303;52.160;-0.428;2023-06-04T00:29:21;17.13;;;6.53;;
20743;SDS011;56303;52.160;-0.428;2023-06-04T00:31:48;15.17;;;6.47;;
20743;SDS011;56303;52.160;-0.428;2023-06-04T00:34:16;12.63;;;5.87;;
20743;SDS011;56303;52.160;-0.428;2023-06-04T00:36:44;14.10;;;5.80;;
20743;SDS011;56303;52.160;-0.428;2023-06-04T00:39:11;12.13;;;6.40;;
20743;SDS011;56303;52.160;-0.428;2023-06-04T00:41:38;21.67;;;7.63;;
20743;SDS011;56303;52.160;-0.428;2023-06-04T00:44:05;13.57;;;6.00;;
20743;SDS011;56303;52.160;-0.428;2023-06-04T00:46:32;13.37;;;6.50;;
20743;SDS011;56303;52.160;-0.428;2023-06-04T00:49:04;15.43;;;6.90;;
20743;SDS011;56303;52.160;-0.428;2023-06-04T00:51:32;21.60;;;7.07;;
20743;SDS011;56303;52.160;-0.428;2023-06-04T00:53:59;13.83;;;6.47;;
20743;SDS011;56303;52.160;-0.428;2023-06-04T00:56:36;16.57;;;6.37;;
20743;SDS011;56303;52.160;-0.428;2023-06-04T00:59:07;15.87;;;6.90;;
20743;SDS011;56303;52.160;-0.428;2023-06-04T01:01:55;17.73;;;7.80;;
20743;SDS011;56303;52.160;-0.428;2023-06-04T01:07:08;17.67;;;6.57;;
20743;SDS011;56303;52.160;-0.428;2023-06-04T01:09:36;11.53;;;6.07;;
20743;SDS011;56303;52.160;-0.428;2023-06-04T01:12:05;11.70;;;6.20;;
20743;SDS011;56303;52.160;-0.428;2023-06-04T01:14:33;17.57;;;7.10;;
20743;SDS011;56303;52.160;-0.428;2023-06-04T01:17:02;12.53;;;6.50;;
20743;SDS011;56303;52.160;-0.428;2023-06-04T01:22:23;18.67;;;7.87;;
20743;SDS011;56303;52.160;-0.428;2023-06-04T01:24:58;13.50;;;6.23;;
20743;SDS011;56303;52.160;-0.428;2023-06-04T01:27:30;14.40;;;6.30;;
20743;SDS011;56303;52.160;-0.428;2023-06-04T01:29:59;15.63;;;5.83;;
20743;SDS011;56303;52.160;-0.428;2023-06-04T01:32:27;17.87;;;7.03;;
20743;SDS011;56303;52.160;-0.428;2023-06-04T01:34:54;16.40;;;6.27;;
20743;SDS011;56303;52.160;-0.428;2023-06-04T01:37:21;13.03;;;6.73;;
20743;SDS011;56303;52.160;-0.428;2023-06-04T01:39:51;19.00;;;6.53;;
20743;SDS011;56303;52.160;-0.428;2023-06-04T01:42:18;15.20;;;6.33;;
20743;SDS011;56303;52.160;-0.428;2023-06-04T01:44:45;14.30;;;6.27;;
20743;SDS011;56303;52.160;-0.428;2023-06-04T01:47:12;14.60;;;6.80;;
20743;SDS011;56303;52.160;-0.428;2023-06-04T01:49:40;13.77;;;6.03;;
20743;SDS011;56303;52.160;-0.428;2023-06-04T01:52:07;16.70;;;7.43;;
20743;SDS011;56303;52.160;-0.428;2023-06-04T01:54:34;14.43;;;7.10;;
20743;SDS011;56303;52.160;-0.428;2023-06-04T01:57:02;15.90;;;6.93;;
20743;SDS011;56303;52.160;-0.428;2023-06-04T01:59:29;24.17;;;7.60;;
20743;SDS011;56303;52.160;-0.428;2023-06-04T02:01:58;12.30;;;6.50;;
20743;SDS011;56303;52.160;-0.428;2023-06-04T02:04:25;15.27;;;7.90;;
20743;SDS011;56303;52.160;-0.428;2023-06-04T02:06:52;16.53;;;7.37;;
20743;SDS011;56303;52.160;-0.428;2023-06-04T02:09:19;18.83;;;7.57;;
20743;SDS011;56303;52.160;-0.428;2023-06-04T02:11:47;18.50;;;7.70;;
20743;SDS011;56303;52.160;-0.428;2023-06-04T02:14:14;17.30;;;7.60;;
20743;SDS011;56303;52.160;-0.428;2023-06-04T02:16:40;14.23;;;6.80;;
20743;SDS011;56303;52.160;-0.428;2023-06-04T02:19:07;21.50;;;7.27;;
20743;SDS011;56303;52.160;-0.428;2023-06-04T02:21:34;17.87;;;7.73;;
20743;SDS011;56303;52.160;-0.428;2023-06-04T02:24:02;10.83;;;5.93;;
20743;SDS011;56303;52.160;-0.428;2023-06-04T02:26:29;15.37;;;7.00;;
20743;SDS011;56303;52.160;-0.428;2023-06-04T02:31:27;13.10;;;6.70;;
20743;SDS011;56303;52.160;-0.428;2023-06-04T02:33:55;14.10;;;6.33;;
20743;SDS011;56303;52.160;-0.428;2023-06-04T02:36:22;12.73;;;5.80;;
20743;SDS011;56303;52.160;-0.428;2023-06-04T02:38:49;16.20;;;7.87;;
20743;SDS011;56303;52.160;-0.428;2023-06-04T02:41:17;13.60;;;6.50;;
20743;SDS011;56303;52.160;-0.428;2023-06-04T02:43:44;15.27;;;7.23;;
20743;SDS011;56303;52.160;-0.428;2023-06-04T02:46:11;22.80;;;7.60;;
20743;SDS011;56303;52.160;-0.428;2023-06-04T02:48:38;12.10;;;6.57;;
20743;SDS011;56303;52.160;-0.428;2023-06-04T02:51:05;15.03;;;7.57;;
20743;SDS011;56303;52.160;-0.428;2023-06-04T02:53:32;15.40;;;8.17;;
20743;SDS011;56303;52.160;-0.428;2023-06-04T02:55:59;23.10;;;8.53;;
20743;SDS011;56303;52.160;-0.428;2023-06-04T02:58:26;16.67;;;7.73;;
20743;SDS011;56303;52.160;-0.428;2023-06-04T03:00:55;13.30;;;7.73;;
20743;SDS011;56303;52.160;-0.428;2023-06-04T03:03:22;16.87;;;8.43;;
20743;SDS011;56303;52.160;-0.428;2023-06-04T03:05:49;16.73;;;8.07;;
20743;SDS011;56303;52.160;-0.428;2023-06-04T03:08:16;17.77;;;8.60;;
20743;SDS011;56303;52.160;-0.428;2023-06-04T03:10:43;22.03;;;9.50;;
20743;SDS011;56303;52.160;-0.428;2023-06-04T03:13:09;15.20;;;8.43;;
20743;SDS011;56303;52.160;-0.428;2023-06-04T03:15:36;15.33;;;9.00;;
20743;SDS011;56303;52.160;-0.428;2023-06-04T03:18:05;17.77;;;8.83;;
20743;SDS011;56303;52.160;-0.428;2023-06-04T03:20:32;17.30;;;9.40;;
20743;SDS011;56303;52.160;-0.428;2023-06-04T03:23:05;20.50;;;9.63;;
20743;SDS011;56303;52.160;-0.428;2023-06-04T03:25:31;18.27;;;9.07;;
20743;SDS011;56303;52.160;-0.428;2023-06-04T03:27:58;19.40;;;8.63;;
20743;SDS011;56303;52.160;-0.428;2023-06-04T03:30:26;18.63;;;8.57;;
20743;SDS011;56303;52.160;-0.428;2023-06-04T03:32:53;16.00;;;8.77;;
20743;SDS011;56303;52.160;-0.428;2023-06-04T03:35:20;13.33;;;8.67;;
20743;SDS011;56303;52.160;-0.428;2023-06-04T03:37:47;14.90;;;8.67;;
20743;SDS011;56303;52.160;-0.428;2023-06-04T03:40:14;17.27;;;8.37;;
20743;SDS011;56303;52.160;-0.428;2023-06-04T03:42:40;16.83;;;8.90;;
20743;SDS011;56303;52.160;-0.428;2023-06-04T03:45:08;16.60;;;9.63;;
20743;SDS011;56303;52.160;-0.428;2023-06-04T03:47:35;16.90;;;8.53;;
20743;SDS011;56303;52.160;-0.428;2023-06-04T03:50:05;17.87;;;7.97;;
20743;SDS011;56303;52.160;-0.428;2023-06-04T03:52:33;14.93;;;9.17;;
20743;SDS011;56303;52.160;-0.428;2023-06-04T03:55:03;14.63;;;8.20;;
20743;SDS011;56303;52.160;-0.428;2023-06-04T03:57:30;17.03;;;8.40;;
20743;SDS011;56303;52.160;-0.428;2023-06-04T04:00:04;18.80;;;9.10;;
20743;SDS011;56303;52.160;-0.428;2023-06-04T04:02:33;14.40;;;8.50;;
20743;SDS011;56303;52.160;-0.428;2023-06-04T04:05:00;16.10;;;8.60;;
20743;SDS011;56303;52.160;-0.428;2023-06-04T04:07:27;15.93;;;8.23;;
20743;SDS011;56303;52.160;-0.428;2023-06-04T04:09:54;16.50;;;8.93;;
20743;SDS011;56303;52.160;-0.428;2023-06-04T04:12:21;21.17;;;8.50;;
20743;SDS011;56303;52.160;-0.428;2023-06-04T04:14:48;13.03;;;8.33;;
20743;SDS011;56303;52.160;-0.428;2023-06-04T04:17:15;15.70;;;8.47;;
20743;SDS011;56303;52.160;-0.428;2023-06-04T04:19:42;12.50;;;7.87;;
20743;SDS011;56303;52.160;-0.428;2023-06-04T04:22:10;17.63;;;8.47;;
20743;SDS011;56303;52.160;-0.428;2023-06-04T04:24:37;15.23;;;7.83;;
20743;SDS011;56303;52.160;-0.428;2023-06-04T04:27:05;17.87;;;8.60;;
20743;SDS011;56303;52.160;-0.428;2023-06-04T04:29:37;17.23;;;7.97;;
20743;SDS011;56303;52.160;-0.428;2023-06-04T04:32:04;15.50;;;8.23;;
20743;SDS011;56303;52.160;-0.428;2023-06-04T04:34:38;14.53;;;8.03;;
20743;SDS011;56303;52.160;-0.428;2023-06-04T04:37:17;17.07;;;7.83;;
20743;SDS011;56303;52.160;-0.428;2023-06-04T04:39:47;15.17;;;8.70;;
20743;SDS011;56303;52.160;-0.428;2023-06-04T04:42:18;16.23;;;8.07;;
20743;SDS011;56303;52.160;-0.428;2023-06-04T04:44:48;15.67;;;8.37;;
20743;SDS011;56303;52.160;-0.428;2023-06-04T04:47:16;14.00;;;8.77;;
20743;SDS011;56303;52.160;-0.428;2023-06-04T04:49:43;18.03;;;7.87;;
20743;SDS011;56303;52.160;-0.428;2023-06-04T04:52:12;18.40;;;8.23;;
20743;SDS011;56303;52.160;-0.428;2023-06-04T04:54:39;17.67;;;8.60;;
20743;SDS011;56303;52.160;-0.428;2023-06-04T04:57:05;14.03;;;7.97;;
20743;SDS011;56303;52.160;-0.428;2023-06-04T04:59:39;13.43;;;8.03;;
20743;SDS011;56303;52.160;-0.428;2023-06-04T05:02:06;12.33;;;7.33;;
20743;SDS011;56303;52.160;-0.428;2023-06-04T05:04:33;13.67;;;7.90;;
20743;SDS011;56303;52.160;-0.428;2023-06-04T05:07:01;15.00;;;7.97;;
20743;SDS011;56303;52.160;-0.428;2023-06-04T05:09:27;14.23;;;7.90;;
20743;SDS011;56303;52.160;-0.428;2023-06-04T05:11:55;13.37;;;8.03;;
20743;SDS011;56303;52.160;-0.428;2023-06-04T05:14:21;11.23;;;7.03;;
20743;SDS011;56303;52.160;-0.428;2023-06-04T05:16:48;14.87;;;7.80;;
20743;SDS011;56303;52.160;-0.428;2023-06-04T05:19:16;17.83;;;8.67;;
20743;SDS011;56303;52.160;-0.428;2023-06-04T05:21:43;12.50;;;7.53;;
20743;SDS011;56303;52.160;-0.428;2023-06-04T05:24:10;15.37;;;7.60;;
20743;SDS011;56303;52.160;-0.428;2023-06-04T05:26:37;14.77;;;7.50;;
20743;SDS011;56303;52.160;-0.428;2023-06-04T05:29:06;16.57;;;7.20;;
20743;SDS011;56303;52.160;-0.428;2023-06-04T05:31:33;14.97;;;7.10;;
20743;SDS011;56303;52.160;-0.428;2023-06-04T05:34:01;11.60;;;6.47;;
20743;SDS011;56303;52.160;-0.428;2023-06-04T05:36:31;13.73;;;7.23;;
20743;SDS011;56303;52.160;-0.428;2023-06-04T05:38:58;17.57;;;8.37;;
20743;SDS011;56303;52.160;-0.428;2023-06-04T05:41:26;16.63;;;7.30;;
20743;SDS011;56303;52.160;-0.428;2023-06-04T05:43:54;11.80;;;6.20;;
20743;SDS011;56303;52.160;-0.428;2023-06-04T05:46:21;10.73;;;6.90;;
20743;SDS011;56303;52.160;-0.428;2023-06-04T05:48:48;16.70;;;6.67;;
20743;SDS011;56303;52.160;-0.428;2023-06-04T05:51:17;11.63;;;6.70;;
20743;SDS011;56303;52.160;-0.428;2023-06-04T05:53:44;17.03;;;7.03;;
20743;SDS011;56303;52.160;-0.428;2023-06-04T05:56:11;12.20;;;6.13;;
20743;SDS011;56303;52.160;-0.428;2023-06-04T05:58:39;13.53;;;6.67;;
20743;SDS011;56303;52.160;-0.428;2023-06-04T06:01:06;13.47;;;6.23;;
20743;SDS011;56303;52.160;-0.428;2023-06-04T06:03:34;12.23;;;6.50;;
20743;SDS011;56303;52.160;-0.428;2023-06-04T06:06:01;10.93;;;7.53;;
20743;SDS011;56303;52.160;-0.428;2023-06-04T06:08:28;14.33;;;8.00;;
20743;SDS011;56303;52.160;-0.428;2023-06-04T06:10:55;10.00;;;6.53;;
20743;SDS011;56303;52.160;-0.428;2023-06-04T06:13:22;10.70;;;5.77;;
20743;SDS011;56303;52.160;-0.428;2023-06-04T06:15:49;10.07;;;6.47;;
20743;SDS011;56303;52.160;-0.428;2023-06-04T06:18:16;13.00;;;5.83;;
20743;SDS011;56303;52.160;-0.428;2023-06-04T06:20:43;11.97;;;6.13;;
20743;SDS011;56303;52.160;-0.428;2023-06-04T06:23:10;8.63;;;5.47;;
20743;SDS011;56303;52.160;-0.428;2023-06-04T06:25:38;11.93;;;5.50;;
20743;SDS011;56303;52.160;-0.428;2023-06-04T06:28:06;8.80;;;5.13;;
20743;SDS011;56303;52.160;-0.428;2023-06-04T06:30:33;11.13;;;5.77;;
20743;SDS011;56303;52.160;-0.428;2023-06-04T06:33:00;12.77;;;4.90;;
20743;SDS011;56303;52.160;-0.428;2023-06-04T06:35:27;11.37;;;4.77;;
20743;SDS011;56303;52.160;-0.428;2023-06-04T06:37:54;10.15;;;5.15;;
20743;SDS011;56303;52.160;-0.428;2023-06-04T06:40:22;9.87;;;4.53;;
20743;SDS011;56303;52.160;-0.428;2023-06-04T06:42:50;8.83;;;4.93;;
20743;SDS011;56303;52.160;-0.428;2023-06-04T06:45:18;10.67;;;5.00;;
20743;SDS011;56303;52.160;-0.428;2023-06-04T06:47:45;13.03;;;5.40;;
20743;SDS011;56303;52.160;-0.428;2023-06-04T06:50:12;12.20;;;4.80;;
20743;SDS011;56303;52.160;-0.428;2023-06-04T06:52:39;9.10;;;4.13;;
20743;SDS011;56303;52.160;-0.428;2023-06-04T06:55:06;13.43;;;4.80;;
20743;SDS011;56303;52.160;-0.428;2023-06-04T06:57:33;8.97;;;4.40;;
20743;SDS011;56303;52.160;-0.428;2023-06-04T07:00:00;8.00;;;3.87;;
20743;SDS011;56303;52.160;-0.428;2023-06-04T07:02:27;11.07;;;4.33;;
20743;SDS011;56303;52.160;-0.428;2023-06-04T07:04:55;7.83;;;4.33;;
20743;SDS011;56303;52.160;-0.428;2023-06-04T07:07:22;8.17;;;4.00;;
20743;SDS011;56303;52.160;-0.428;2023-06-04T07:09:50;10.80;;;4.67;;
20743;SDS011;56303;52.160;-0.428;2023-06-04T07:12:17;10.80;;;4.70;;
20743;SDS011;56303;52.160;-0.428;2023-06-04T07:14:44;9.37;;;4.50;;
20743;SDS011;56303;52.160;-0.428;2023-06-04T07:17:11;13.10;;;3.87;;
20743;SDS011;56303;52.160;-0.428;2023-06-04T07:19:38;8.60;;;4.10;;
20743;SDS011;56303;52.160;-0.428;2023-06-04T07:22:05;8.90;;;3.80;;
20743;SDS011;56303;52.160;-0.428;2023-06-04T07:24:32;8.83;;;4.73;;
20743;SDS011;56303;52.160;-0.428;2023-06-04T07:26:59;11.67;;;4.00;;
20743;SDS011;56303;52.160;-0.428;2023-06-04T07:29:26;9.43;;;4.37;;
20743;SDS011;56303;52.160;-0.428;2023-06-04T07:31:53;8.97;;;3.87;;
20743;SDS011;56303;52.160;-0.428;2023-06-04T07:34:21;11.03;;;4.30;;
20743;SDS011;56303;52.160;-0.428;2023-06-04T07:36:51;10.60;;;3.67;;
20743;SDS011;56303;52.160;-0.428;2023-06-04T07:39:17;8.00;;;3.27;;
20743;SDS011;56303;52.160;-0.428;2023-06-04T07:41:44;8.57;;;3.20;;
20743;SDS011;56303;52.160;-0.428;2023-06-04T07:44:11;8.67;;;3.90;;
20743;SDS011;56303;52.160;-0.428;2023-06-04T07:46:38;7.30;;;3.33;;
20743;SDS011;56303;52.160;-0.428;2023-06-04T07:49:05;7.03;;;3.50;;
20743;SDS011;56303;52.160;-0.428;2023-06-04T07:51:32;8.33;;;2.67;;
20743;SDS011;56303;52.160;-0.428;2023-06-04T07:53:59;7.63;;;3.17;;
20743;SDS011;56303;52.160;-0.428;2023-06-04T07:56:26;6.90;;;2.63;;
20743;SDS011;56303;52.160;-0.428;2023-06-04T07:58:53;6.43;;;3.40;;
20743;SDS011;56303;52.160;-0.428;2023-06-04T08:01:20;5.97;;;3.20;;
20743;SDS011;56303;52.160;-0.428;2023-06-04T08:03:50;6.60;;;3.90;;
20743;SDS011;56303;52.160;-0.428;2023-06-04T08:06:17;7.70;;;3.70;;
20743;SDS011;56303;52.160;-0.428;2023-06-04T08:08:44;7.67;;;3.20;;
20743;SDS011;56303;52.160;-0.428;2023-06-04T08:11:12;8.10;;;3.17;;
20743;SDS011;56303;52.160;-0.428;2023-06-04T08:13:43;6.37;;;2.83;;
20743;SDS011;56303;52.160;-0.428;2023-06-04T08:16:10;5.60;;;3.03;;
20743;SDS011;56303;52.160;-0.428;2023-06-04T08:18:37;5.50;;;2.53;;
20743;SDS011;56303;52.160;-0.428;2023-06-04T08:21:05;8.90;;;3.40;;
20743;SDS011;56303;52.160;-0.428;2023-06-04T08:23:35;7.47;;;2.77;;
20743;SDS011;56303;52.160;-0.428;2023-06-04T08:26:02;8.77;;;3.90;;
20743;SDS011;56303;52.160;-0.428;2023-06-04T08:28:32;4.87;;;3.30;;
20743;SDS011;56303;52.160;-0.428;2023-06-04T08:30:59;6.73;;;3.50;;
20743;SDS011;56303;52.160;-0.428;2023-06-04T08:33:26;8.60;;;3.47;;
20743;SDS011;56303;52.160;-0.428;2023-06-04T08:35:53;7.40;;;3.77;;
20743;SDS011;56303;52.160;-0.428;2023-06-04T08:38:20;5.73;;;3.10;;
20743;SDS011;56303;52.160;-0.428;2023-06-04T08:40:48;7.13;;;3.63;;
20743;SDS011;56303;52.160;-0.428;2023-06-04T08:43:19;7.93;;;3.70;;
20743;SDS011;56303;52.160;-0.428;2023-06-04T08:45:48;5.73;;;3.50;;
20743;SDS011;56303;52.160;-0.428;2023-06-04T08:48:17;5.90;;;3.20;;
20743;SDS011;56303;52.160;-0.428;2023-06-04T08:50:48;5.13;;;2.93;;
20743;SDS011;56303;52.160;-0.428;2023-06-04T08:53:16;6.63;;;3.03;;
20743;SDS011;56303;52.160;-0.428;2023-06-04T08:55:44;6.47;;;3.23;;
20743;SDS011;56303;52.160;-0.428;2023-06-04T08:58:11;6.87;;;3.00;;
20743;SDS011;56303;52.160;-0.428;2023-06-04T09:00:41;5.17;;;2.97;;
20743;SDS011;56303;52.160;-0.428;2023-06-04T09:03:08;5.13;;;3.07;;
20743;SDS011;56303;52.160;-0.428;2023-06-04T09:05:37;9.40;;;3.57;;
20743;SDS011;56303;52.160;-0.428;2023-06-04T09:08:06;8.63;;;3.70;;
20743;SDS011;56303;52.160;-0.428;2023-06-04T09:10:37;7.53;;;3.47;;
20743;SDS011;56303;52.160;-0.428;2023-06-04T09:13:05;5.70;;;2.97;;
20743;SDS011;56303;52.160;-0.428;2023-06-04T09:15:35;6.03;;;3.07;;
20743;SDS011;56303;52.160;-0.428;2023-06-04T09:18:02;7.30;;;3.23;;
20743;SDS011;56303;52.160;-0.428;2023-06-04T09:20:29;3.97;;;2.90;;
20743;SDS011;56303;52.160;-0.428;2023-06-04T09:22:56;5.80;;;2.90;;
20743;SDS011;56303;52.160;-0.428;2023-06-04T09:25:24;6.97;;;3.40;;
20743;SDS011;56303;52.160;-0.428;2023-06-04T09:27:53;6.03;;;2.93;;
20743;SDS011;56303;52.160;-0.428;2023-06-04T09:30:22;6.73;;;2.47;;
20743;SDS011;56303;52.160;-0.428;2023-06-04T09:32:49;5.13;;;2.40;;
20743;SDS011;56303;52.160;-0.428;2023-06-04T09:35:17;6.53;;;2.97;;
20743;SDS011;56303;52.160;-0.428;2023-06-04T09:37:52;4.87;;;2.80;;
20743;SDS011;56303;52.160;-0.428;2023-06-04T09:40:20;6.57;;;2.53;;
20743;SDS011;56303;52.160;-0.428;2023-06-04T09:42:48;4.43;;;2.57;;
20743;SDS011;56303;52.160;-0.428;2023-06-04T09:45:29;8.73;;;2.87;;
20743;SDS011;56303;52.160;-0.428;2023-06-04T09:47:58;5.60;;;3.07;;
20743;SDS011;56303;52.160;-0.428;2023-06-04T09:50:35;6.03;;;3.00;;
20743;SDS011;56303;52.160;-0.428;2023-06-04T09:53:18;6.70;;;2.73;;
20743;SDS011;56303;52.160;-0.428;2023-06-04T09:55:55;5.00;;;2.37;;
20743;SDS011;56303;52.160;-0.428;2023-06-04T09:58:27;9.40;;;3.37;;
20743;SDS011;56303;52.160;-0.428;2023-06-04T10:00:59;6.47;;;3.30;;
20743;SDS011;56303;52.160;-0.428;2023-06-04T10:03:31;4.97;;;2.53;;
20743;SDS011;56303;52.160;-0.428;2023-06-04T10:06:03;5.30;;;3.00;;
20743;SDS011;56303;52.160;-0.428;2023-06-04T10:08:31;5.60;;;3.13;;
20743;SDS011;56303;52.160;-0.428;2023-06-04T10:11:01;5.27;;;2.57;;
20743;SDS011;56303;52.160;-0.428;2023-06-04T10:13:29;5.53;;;2.80;;
20743;SDS011;56303;52.160;-0.428;2023-06-04T10:16:01;4.80;;;2.77;;
20743;SDS011;56303;52.160;-0.428;2023-06-04T10:18:29;6.70;;;3.33;;
20743;SDS011;56303;52.160;-0.428;2023-06-04T10:20:57;4.83;;;2.70;;
20743;SDS011;56303;52.160;-0.428;2023-06-04T10:23:24;5.50;;;3.00;;
20743;SDS011;56303;52.160;-0.428;2023-06-04T10:25:52;6.57;;;2.60;;
20743;SDS011;56303;52.160;-0.428;2023-06-04T10:28:20;5.40;;;2.43;;
20743;SDS011;56303;52.160;-0.428;2023-06-04T10:30:49;4.97;;;2.83;;
20743;SDS011;56303;52.160;-0.428;2023-06-04T10:33:18;5.13;;;2.63;;
20743;SDS011;56303;52.160;-0.428;2023-06-04T10:35:47;8.27;;;2.80;;
20743;SDS011;56303;52.160;-0.428;2023-06-04T10:38:14;3.40;;;2.50;;
20743;SDS011;56303;52.160;-0.428;2023-06-04T10:40:42;7.33;;;2.50;;
20743;SDS011;56303;52.160;-0.428;2023-06-04T10:43:10;5.43;;;2.80;;
20743;SDS011;56303;52.160;-0.428;2023-06-04T10:45:39;5.00;;;2.90;;
20743;SDS011;56303;52.160;-0.428;2023-06-04T10:48:07;4.70;;;2.70;;
20743;SDS011;56303;52.160;-0.428;2023-06-04T10:50:46;3.43;;;2.60;;
20743;SDS011;56303;52.160;-0.428;2023-06-04T10:53:16;9.53;;;3.53;;
20743;SDS011;56303;52.160;-0.428;2023-06-04T10:55:44;6.90;;;3.40;;
20743;SDS011;56303;52.160;-0.428;2023-06-04T10:58:15;4.30;;;2.50;;
20743;SDS011;56303;52.160;-0.428;2023-06-04T11:00:44;6.00;;;2.77;;
20743;SDS011;56303;52.160;-0.428;2023-06-04T11:03:15;3.80;;;2.40;;
20743;SDS011;56303;52.160;-0.428;2023-06-04T11:05:43;5.23;;;2.30;;
20743;SDS011;56303;52.160;-0.428;2023-06-04T11:08:12;4.30;;;2.30;;
20743;SDS011;56303;52.160;-0.428;2023-06-04T11:10:44;5.03;;;2.63;;
20743;SDS011;56303;52.160;-0.428;2023-06-04T11:13:11;4.97;;;2.40;;
20743;SDS011;56303;52.160;-0.428;2023-06-04T11:15:43;4.37;;;2.47;;
20743;SDS011;56303;52.160;-0.428;2023-06-04T11:18:14;3.63;;;2.53;;
20743;SDS011;56303;52.160;-0.428;2023-06-04T11:21:04;5.37;;;2.90;;
20743;SDS011;56303;52.160;-0.428;2023-06-04T11:23:32;6.30;;;3.03;;
20743;SDS011;56303;52.160;-0.428;2023-06-04T11:26:00;5.37;;;2.27;;
20743;SDS011;56303;52.160;-0.428;2023-06-04T11:28:27;3.10;;;2.17;;
20743;SDS011;56303;52.160;-0.428;2023-06-04T11:31:01;3.17;;;2.30;;
20743;SDS011;56303;52.160;-0.428;2023-06-04T11:33:29;4.03;;;2.50;;
20743;SDS011;56303;52.160;-0.428;2023-06-04T11:35:57;4.80;;;2.30;;
20743;SDS011;56303;52.160;-0.428;2023-06-04T11:38:24;2.77;;;1.93;;
20743;SDS011;56303;52.160;-0.428;2023-06-04T11:40:59;3.70;;;2.90;;
20743;SDS011;56303;52.160;-0.428;2023-06-04T11:43:28;4.33;;;2.73;;
20743;SDS011;56303;52.160;-0.428;2023-06-04T11:45:55;4.07;;;2.60;;
20743;SDS011;56303;52.160;-0.428;2023-06-04T11:48:23;5.07;;;2.10;;
20743;SDS011;56303;52.160;-0.428;2023-06-04T11:50:50;4.70;;;2.40;;
20743;SDS011;56303;52.160;-0.428;2023-06-04T11:53:17;5.10;;;2.70;;
20743;SDS011;56303;52.160;-0.428;2023-06-04T11:55:44;5.20;;;2.40;;
20743;SDS011;56303;52.160;-0.428;2023-06-04T11:58:12;3.60;;;2.50;;
20743;SDS011;56303;52.160;-0.428;2023-06-04T12:00:39;3.63;;;2.37;;
20743;SDS011;56303;52.160;-0.428;2023-06-04T12:03:07;5.30;;;2.47;;
20743;SDS011;56303;52.160;-0.428;2023-06-04T12:05:34;4.80;;;2.40;;
20743;SDS011;56303;52.160;-0.428;2023-06-04T12:08:08;3.93;;;2.50;;
20743;SDS011;56303;52.160;-0.428;2023-06-04T12:10:40;5.53;;;2.63;;
20743;SDS011;56303;52.160;-0.428;2023-06-04T12:13:08;4.93;;;2.80;;
20743;SDS011;56303;52.160;-0.428;2023-06-04T12:15:36;4.57;;;2.53;;
20743;SDS011;56303;52.160;-0.428;2023-06-04T12:18:03;4.97;;;2.40;;
20743;SDS011;56303;52.160;-0.428;2023-06-04T12:20:38;4.57;;;2.70;;
20743;SDS011;56303;52.160;-0.428;2023-06-04T12:23:06;4.63;;;2.40;;
20743;SDS011;56303;52.160;-0.428;2023-06-04T12:25:34;5.97;;;2.50;;
20743;SDS011;56303;52.160;-0.428;2023-06-04T12:28:04;3.53;;;2.33;;
20743;SDS011;56303;52.160;-0.428;2023-06-04T12:30:35;4.17;;;2.37;;
20743;SDS011;56303;52.160;-0.428;2023-06-04T12:33:06;3.70;;;2.30;;
20743;SDS011;56303;52.160;-0.428;2023-06-04T12:35:34;4.83;;;2.43;;
20743;SDS011;56303;52.160;-0.428;2023-06-04T12:38:02;4.37;;;2.77;;
20743;SDS011;56303;52.160;-0.428;2023-06-04T12:40:35;3.53;;;2.30;;
20743;SDS011;56303;52.160;-0.428;2023-06-04T12:43:02;7.20;;;2.70;;
20743;SDS011;56303;52.160;-0.428;2023-06-04T12:45:31;5.37;;;2.60;;
20743;SDS011;56303;52.160;-0.428;2023-06-04T12:47:58;3.97;;;2.80;;
20743;SDS011;56303;52.160;-0.428;2023-06-04T12:50:25;5.83;;;2.57;;
20743;SDS011;56303;52.160;-0.428;2023-06-04T12:52:52;2.63;;;2.07;;
20743;SDS011;56303;52.160;-0.428;2023-06-04T12:55:19;7.13;;;2.53;;
20743;SDS011;56303;52.160;-0.428;2023-06-04T12:57:46;4.90;;;2.40;;
20743;SDS011;56303;52.160;-0.428;2023-06-04T13:00:14;4.93;;;2.93;;
20743;SDS011;56303;52.160;-0.428;2023-06-04T13:02:43;4.97;;;2.43;;
20743;SDS011;56303;52.160;-0.428;2023-06-04T13:05:10;3.30;;;2.60;;
20743;SDS011;56303;52.160;-0.428;2023-06-04T13:07:37;4.70;;;2.47;;
20743;SDS011;56303;52.160;-0.428;2023-06-04T13:10:04;4.90;;;2.83;;
20743;SDS011;56303;52.160;-0.428;2023-06-04T13:12:31;4.77;;;3.00;;
20743;SDS011;56303;52.160;-0.428;2023-06-04T13:14:57;5.80;;;2.73;;
20743;SDS011;56303;52.160;-0.428;2023-06-04T13:17:24;4.88;;;2.33;;
20743;SDS011;56303;52.160;-0.428;2023-06-04T13:19:51;2.78;;;2.33;;
20743;SDS011;56303;52.160;-0.428;2023-06-04T13:22:18;6.72;;;2.53;;
20743;SDS011;56303;52.160;-0.428;2023-06-04T13:24:46;5.10;;;2.70;;
20743;SDS011;56303;52.160;-0.428;2023-06-04T13:27:13;4.50;;;2.95;;
20743;SDS011;56303;52.160;-0.428;2023-06-04T13:29:39;4.13;;;2.47;;
20743;SDS011;56303;52.160;-0.428;2023-06-04T13:32:09;4.90;;;2.75;;
20743;SDS011;56303;52.160;-0.428;2023-06-04T13:34:37;3.22;;;2.05;;
20743;SDS011;56303;52.160;-0.428;2023-06-04T13:37:04;5.45;;;2.78;;
20743;SDS011;56303;52.160;-0.428;2023-06-04T13:39:32;4.60;;;2.63;;
20743;SDS011;56303;52.160;-0.428;2023-06-04T13:41:59;3.13;;;2.30;;
20743;SDS011;56303;52.160;-0.428;2023-06-04T13:44:26;4.57;;;2.70;;
20743;SDS011;56303;52.160;-0.428;2023-06-04T13:46:55;5.85;;;2.65;;
20743;SDS011;56303;52.160;-0.428;2023-06-04T13:49:24;3.60;;;2.50;;
20743;SDS011;56303;52.160;-0.428;2023-06-04T13:51:51;3.65;;;2.45;;
20743;SDS011;56303;52.160;-0.428;2023-06-04T13:54:18;4.97;;;2.65;;
20743;SDS011;56303;52.160;-0.428;2023-06-04T13:56:45;6.15;;;2.75;;
20743;SDS011;56303;52.160;-0.428;2023-06-04T13:59:12;6.53;;;2.35;;
20743;SDS011;56303;52.160;-0.428;2023-06-04T14:01:39;7.07;;;2.72;;
20743;SDS011;56303;52.160;-0.428;2023-06-04T14:04:07;5.38;;;3.10;;
20743;SDS011;56303;52.160;-0.428;2023-06-04T14:06:34;7.18;;;3.13;;
20743;SDS011;56303;52.160;-0.428;2023-06-04T14:09:02;4.55;;;2.50;;
20743;SDS011;56303;52.160;-0.428;2023-06-04T14:11:30;4.25;;;2.30;;
20743;SDS011;56303;52.160;-0.428;2023-06-04T14:13:59;6.22;;;3.15;;
20743;SDS011;56303;52.160;-0.428;2023-06-04T14:16:26;6.28;;;2.75;;
20743;SDS011;56303;52.160;-0.428;2023-06-04T14:18:53;6.15;;;2.55;;
20743;SDS011;56303;52.160;-0.428;2023-06-04T14:21:20;4.43;;;2.40;;
20743;SDS011;56303;52.160;-0.428;2023-06-04T14:23:48;3.20;;;2.33;;
20743;SDS011;56303;52.160;-0.428;2023-06-04T14:26:17;3.97;;;2.58;;
20743;SDS011;56303;52.160;-0.428;2023-06-04T14:28:44;2.70;;;2.20;;
20743;SDS011;56303;52.160;-0.428;2023-06-04T14:31:11;4.03;;;2.75;;
20743;SDS011;56303;52.160;-0.428;2023-06-04T14:33:38;5.40;;;2.45;;
20743;SDS011;56303;52.160;-0.428;2023-06-04T14:36:08;4.70;;;2.20;;
20743;SDS011;56303;52.160;-0.428;2023-06-04T14:38:35;4.05;;;2.40;;
20743;SDS011;56303;52.160;-0.428;2023-06-04T14:41:02;5.05;;;2.95;;
20743;SDS011;56303;52.160;-0.428;2023-06-04T14:43:29;7.15;;;2.95;;